sensor_id;sensor_type;location;lat;lon;timestamp;temperature;humidity
16980;DHT22;42288;52.182;21.156;2024-03-22T00:00:15;9.50;99.90
16980;DHT22;42288;52.182;21.156;2024-03-22T00:02:40;9.50;99.90
16980;DHT22;42288;52.182;21.156;2024-03-22T00:05:08;9.50;99.90
16980;DHT22;42288;52.182;21.156;2024-03-22T00:07:34;9.50;99.90
16980;DHT22;42288;52.182;21.156;2024-03-22T00:10:02;9.50;99.90
16980;DHT22;42288;52.182;21.156;2024-03-22T00:12:27;9.60;99.90
16980;DHT22;42288;52.182;21.156;2024-03-22T00:14:53;9.60;99.90
16980;DHT22;42288;52.182;21.156;2024-03-22T00:17:20;9.60;99.90
16980;DHT22;42288;52.182;21.156;2024-03-22T00:19:45;9.70;99.90
16980;DHT22;42288;52.182;21.156;2024-03-22T00:22:11;9.70;99.90
16980;DHT22;42288;52.182;21.156;2024-03-22T00:24:37;9.70;99.90
16980;DHT22;42288;52.182;21.156;2024-03-22T00:27:02;9.80;99.90
16980;DHT22;42288;52.182;21.156;2024-03-22T00:29:28;9.80;99.90
16980;DHT22;42288;52.182;21.156;2024-03-22T00:31:53;9.80;99.90
16980;DHT22;42288;52.182;21.156;2024-03-22T00:34:19;9.80;99.90
16980;DHT22;42288;52.182;21.156;2024-03-22T00:36:45;9.80;99.90
16980;DHT22;42288;52.182;21.156;2024-03-22T00:39:11;9.80;99.90
16980;DHT22;42288;52.182;21.156;2024-03-22T00:41:38;9.80;99.90
16980;DHT22;42288;52.182;21.156;2024-03-22T00:44:04;9.80;99.90
16980;DHT22;42288;52.182;21.156;2024-03-22T00:46:30;9.80;99.90
16980;DHT22;42288;52.182;21.156;2024-03-22T00:48:55;9.80;99.90
16980;DHT22;42288;52.182;21.156;2024-03-22T00:51:21;9.90;99.90
16980;DHT22;42288;52.182;21.156;2024-03-22T00:53:47;9.90;99.90
16980;DHT22;42288;52.182;21.156;2024-03-22T00:56:13;9.90;99.90
16980;DHT22;42288;52.182;21.156;2024-03-22T00:58:38;9.90;99.90
16980;DHT22;42288;52.182;21.156;2024-03-22T01:01:04;9.90;99.90
16980;DHT22;42288;52.182;21.156;2024-03-22T01:03:29;9.90;99.90
16980;DHT22;42288;52.182;21.156;2024-03-22T01:05:55;9.90;99.90
16980;DHT22;42288;52.182;21.156;2024-03-22T01:08:22;9.90;99.90
16980;DHT22;42288;52.182;21.156;2024-03-22T01:10:48;9.90;99.90
16980;DHT22;42288;52.182;21.156;2024-03-22T01:13:13;9.90;99.90
16980;DHT22;42288;52.182;21.156;2024-03-22T01:15:39;9.90;99.90
16980;DHT22;42288;52.182;21.156;2024-03-22T01:18:05;9.90;99.90
16980;DHT22;42288;52.182;21.156;2024-03-22T01:20:31;9.90;99.90
16980;DHT22;42288;52.182;21.156;2024-03-22T01:22:56;9.90;99.90
16980;DHT22;42288;52.182;21.156;2024-03-22T01:25:22;9.90;99.90
16980;DHT22;42288;52.182;21.156;2024-03-22T01:27:47;9.90;99.90
16980;DHT22;42288;52.182;21.156;2024-03-22T01:30:13;10.00;99.90
16980;DHT22;42288;52.182;21.156;2024-03-22T01:32:38;10.00;99.90
16980;DHT22;42288;52.182;21.156;2024-03-22T01:35:04;10.00;99.90
16980;DHT22;42288;52.182;21.156;2024-03-22T01:37:30;9.90;99.90
16980;DHT22;42288;52.182;21.156;2024-03-22T01:39:56;9.90;99.90
16980;DHT22;42288;52.182;21.156;2024-03-22T01:42:22;9.90;99.90
16980;DHT22;42288;52.182;21.156;2024-03-22T01:44:49;9.90;99.90
16980;DHT22;42288;52.182;21.156;2024-03-22T01:47:15;10.00;99.90
16980;DHT22;42288;52.182;21.156;2024-03-22T01:49:41;10.00;99.90
16980;DHT22;42288;52.182;21.156;2024-03-22T01:52:07;9.90;99.90
16980;DHT22;42288;52.182;21.156;2024-03-22T01:54:32;9.90;99.90
16980;DHT22;42288;52.182;21.156;2024-03-22T01:56:58;10.00;99.90
16980;DHT22;42288;52.182;21.156;2024-03-22T01:59:24;10.00;99.90
16980;DHT22;42288;52.182;21.156;2024-03-22T02:01:50;9.90;99.90
16980;DHT22;42288;52.182;21.156;2024-03-22T02:04:16;10.00;99.90
16980;DHT22;42288;52.182;21.156;2024-03-22T02:06:41;10.00;99.90
16980;DHT22;42288;52.182;21.156;2024-03-22T02:09:07;10.00;99.90
16980;DHT22;42288;52.182;21.156;2024-03-22T02:11:36;10.10;99.90
16980;DHT22;42288;52.182;21.156;2024-03-22T02:14:03;10.00;99.90
16980;DHT22;42288;52.182;21.156;2024-03-22T02:16:29;10.00;99.90
16980;DHT22;42288;52.182;21.156;2024-03-22T02:18:55;9.90;99.90
16980;DHT22;42288;52.182;21.156;2024-03-22T02:21:20;9.90;99.90
16980;DHT22;42288;52.182;21.156;2024-03-22T02:23:46;9.90;99.90
16980;DHT22;42288;52.182;21.156;2024-03-22T02:26:11;9.90;99.90
16980;DHT22;42288;52.182;21.156;2024-03-22T02:28:37;9.90;99.90
16980;DHT22;42288;52.182;21.156;2024-03-22T02:31:03;9.90;99.90
16980;DHT22;42288;52.182;21.156;2024-03-22T02:33:29;10.00;99.90
16980;DHT22;42288;52.182;21.156;2024-03-22T02:35:55;10.00;99.90
16980;DHT22;42288;52.182;21.156;2024-03-22T02:38:21;10.00;99.90
16980;DHT22;42288;52.182;21.156;2024-03-22T02:40:48;9.90;99.90
16980;DHT22;42288;52.182;21.156;2024-03-22T02:43:14;9.90;99.90
16980;DHT22;42288;52.182;21.156;2024-03-22T02:45:40;9.90;99.90
16980;DHT22;42288;52.182;21.156;2024-03-22T02:48:06;9.90;99.90
16980;DHT22;42288;52.182;21.156;2024-03-22T02:50:36;9.80;99.90
16980;DHT22;42288;52.182;21.156;2024-03-22T02:53:03;9.90;99.90
16980;DHT22;42288;52.182;21.156;2024-03-22T02:55:29;10.00;99.90
16980;DHT22;42288;52.182;21.156;2024-03-22T02:57:56;10.00;99.90
16980;DHT22;42288;52.182;21.156;2024-03-22T03:00:22;10.10;99.90
16980;DHT22;42288;52.182;21.156;2024-03-22T03:02:48;10.10;99.90
16980;DHT22;42288;52.182;21.156;2024-03-22T03:05:14;10.00;99.90
16980;DHT22;42288;52.182;21.156;2024-03-22T03:07:39;9.90;99.90
16980;DHT22;42288;52.182;21.156;2024-03-22T03:10:06;10.00;99.90
16980;DHT22;42288;52.182;21.156;2024-03-22T03:12:32;9.90;99.90
16980;DHT22;42288;52.182;21.156;2024-03-22T03:14:57;9.80;99.90
16980;DHT22;42288;52.182;21.156;2024-03-22T03:17:23;9.90;99.90
16980;DHT22;42288;52.182;21.156;2024-03-22T03:19:49;9.90;99.90
16980;DHT22;42288;52.182;21.156;2024-03-22T03:22:15;9.90;99.90
16980;DHT22;42288;52.182;21.156;2024-03-22T03:24:40;9.90;99.90
16980;DHT22;42288;52.182;21.156;2024-03-22T03:27:06;10.00;99.90
16980;DHT22;42288;52.182;21.156;2024-03-22T03:29:32;10.00;99.90
16980;DHT22;42288;52.182;21.156;2024-03-22T03:31:58;10.10;99.90
16980;DHT22;42288;52.182;21.156;2024-03-22T03:34:23;10.10;99.90
16980;DHT22;42288;52.182;21.156;2024-03-22T03:36:49;10.10;99.90
16980;DHT22;42288;52.182;21.156;2024-03-22T03:39:14;10.10;99.90
16980;DHT22;42288;52.182;21.156;2024-03-22T03:41:40;10.10;99.90
16980;DHT22;42288;52.182;21.156;2024-03-22T03:44:05;10.00;99.90
16980;DHT22;42288;52.182;21.156;2024-03-22T03:46:31;10.00;99.90
16980;DHT22;42288;52.182;21.156;2024-03-22T03:48:58;9.90;99.90
16980;DHT22;42288;52.182;21.156;2024-03-22T03:51:23;9.90;99.90
16980;DHT22;42288;52.182;21.156;2024-03-22T03:53:49;9.90;99.90
16980;DHT22;42288;52.182;21.156;2024-03-22T03:56:14;9.80;99.90
16980;DHT22;42288;52.182;21.156;2024-03-22T03:58:40;9.70;99.90
16980;DHT22;42288;52.182;21.156;2024-03-22T04:01:07;9.70;99.90
16980;DHT22;42288;52.182;21.156;2024-03-22T04:03:32;9.80;99.90
16980;DHT22;42288;52.182;21.156;2024-03-22T04:05:58;9.70;99.90
16980;DHT22;42288;52.182;21.156;2024-03-22T04:08:25;9.70;99.90
16980;DHT22;42288;52.182;21.156;2024-03-22T04:10:55;9.50;99.90
16980;DHT22;42288;52.182;21.156;2024-03-22T04:13:24;9.50;99.90
16980;DHT22;42288;52.182;21.156;2024-03-22T04:15:51;9.50;99.90
16980;DHT22;42288;52.182;21.156;2024-03-22T04:18:16;9.50;99.90
16980;DHT22;42288;52.182;21.156;2024-03-22T04:20:42;9.60;99.90
16980;DHT22;42288;52.182;21.156;2024-03-22T04:23:09;9.50;99.90
16980;DHT22;42288;52.182;21.156;2024-03-22T04:25:36;9.30;99.90
16980;DHT22;42288;52.182;21.156;2024-03-22T04:28:02;9.10;99.90
16980;DHT22;42288;52.182;21.156;2024-03-22T04:30:27;9.00;99.90
16980;DHT22;42288;52.182;21.156;2024-03-22T04:32:53;8.80;99.90
16980;DHT22;42288;52.182;21.156;2024-03-22T04:35:18;8.80;99.90
16980;DHT22;42288;52.182;21.156;2024-03-22T04:37:44;8.80;99.90
16980;DHT22;42288;52.182;21.156;2024-03-22T04:40:10;8.70;99.90
16980;DHT22;42288;52.182;21.156;2024-03-22T04:42:36;8.70;99.90
16980;DHT22;42288;52.182;21.156;2024-03-22T04:45:01;8.70;99.90
16980;DHT22;42288;52.182;21.156;2024-03-22T04:47:27;8.70;99.90
16980;DHT22;42288;52.182;21.156;2024-03-22T04:49:52;8.70;99.90
16980;DHT22;42288;52.182;21.156;2024-03-22T04:52:19;8.70;99.90
16980;DHT22;42288;52.182;21.156;2024-03-22T04:54:44;8.80;99.90
16980;DHT22;42288;52.182;21.156;2024-03-22T04:57:10;8.80;99.90
16980;DHT22;42288;52.182;21.156;2024-03-22T04:59:35;8.80;99.90
16980;DHT22;42288;52.182;21.156;2024-03-22T05:02:01;8.70;99.90
16980;DHT22;42288;52.182;21.156;2024-03-22T05:04:27;8.80;99.90
16980;DHT22;42288;52.182;21.156;2024-03-22T05:06:52;8.80;99.90
16980;DHT22;42288;52.182;21.156;2024-03-22T05:09:18;8.80;99.90
16980;DHT22;42288;52.182;21.156;2024-03-22T05:11:44;8.90;99.90
16980;DHT22;42288;52.182;21.156;2024-03-22T05:14:15;8.90;99.90
16980;DHT22;42288;52.182;21.156;2024-03-22T05:16:40;8.90;99.90
16980;DHT22;42288;52.182;21.156;2024-03-22T05:19:06;8.90;99.90
16980;DHT22;42288;52.182;21.156;2024-03-22T05:21:33;9.00;99.90
16980;DHT22;42288;52.182;21.156;2024-03-22T05:23:58;9.00;99.90
16980;DHT22;42288;52.182;21.156;2024-03-22T05:26:24;9.00;99.90
16980;DHT22;42288;52.182;21.156;2024-03-22T05:28:49;9.00;99.90
16980;DHT22;42288;52.182;21.156;2024-03-22T05:31:15;9.00;99.90
16980;DHT22;42288;52.182;21.156;2024-03-22T05:33:40;9.10;99.90
16980;DHT22;42288;52.182;21.156;2024-03-22T05:36:06;9.10;99.90
16980;DHT22;42288;52.182;21.156;2024-03-22T05:38:32;9.10;99.90
16980;DHT22;42288;52.182;21.156;2024-03-22T05:40:58;9.20;99.90
16980;DHT22;42288;52.182;21.156;2024-03-22T05:43:23;9.20;99.90
16980;DHT22;42288;52.182;21.156;2024-03-22T05:45:49;9.10;99.90
16980;DHT22;42288;52.182;21.156;2024-03-22T05:48:14;9.20;99.90
16980;DHT22;42288;52.182;21.156;2024-03-22T05:50:40;9.20;99.90
16980;DHT22;42288;52.182;21.156;2024-03-22T05:53:06;9.20;99.90
16980;DHT22;42288;52.182;21.156;2024-03-22T05:55:31;9.30;99.90
16980;DHT22;42288;52.182;21.156;2024-03-22T05:57:57;9.30;99.90
16980;DHT22;42288;52.182;21.156;2024-03-22T06:00:23;9.20;99.90
16980;DHT22;42288;52.182;21.156;2024-03-22T06:02:48;9.30;99.90
16980;DHT22;42288;52.182;21.156;2024-03-22T06:05:14;9.30;99.90
16980;DHT22;42288;52.182;21.156;2024-03-22T06:07:40;9.40;99.90
16980;DHT22;42288;52.182;21.156;2024-03-22T06:10:08;9.30;99.90
16980;DHT22;42288;52.182;21.156;2024-03-22T06:12:35;9.40;99.90
16980;DHT22;42288;52.182;21.156;2024-03-22T06:15:01;9.60;99.90
16980;DHT22;42288;52.182;21.156;2024-03-22T06:17:27;9.60;99.90
16980;DHT22;42288;52.182;21.156;2024-03-22T06:19:52;9.70;99.90
16980;DHT22;42288;52.182;21.156;2024-03-22T06:22:18;9.80;99.90
16980;DHT22;42288;52.182;21.156;2024-03-22T06:24:44;9.80;99.90
16980;DHT22;42288;52.182;21.156;2024-03-22T06:27:10;9.80;99.90
16980;DHT22;42288;52.182;21.156;2024-03-22T06:29:35;9.90;99.90
16980;DHT22;42288;52.182;21.156;2024-03-22T06:32:01;10.00;99.90
16980;DHT22;42288;52.182;21.156;2024-03-22T06:34:27;10.00;99.90
16980;DHT22;42288;52.182;21.156;2024-03-22T06:36:52;10.00;99.90
16980;DHT22;42288;52.182;21.156;2024-03-22T06:39:18;9.90;99.90
16980;DHT22;42288;52.182;21.156;2024-03-22T06:41:45;9.80;99.90
16980;DHT22;42288;52.182;21.156;2024-03-22T06:44:10;9.80;99.90
16980;DHT22;42288;52.182;21.156;2024-03-22T06:46:37;9.80;99.90
16980;DHT22;42288;52.182;21.156;2024-03-22T06:49:03;9.60;99.90
16980;DHT22;42288;52.182;21.156;2024-03-22T06:51:28;9.60;99.90
16980;DHT22;42288;52.182;21.156;2024-03-22T06:53:54;9.60;99.90
16980;DHT22;42288;52.182;21.156;2024-03-22T06:56:19;9.60;99.90
16980;DHT22;42288;52.182;21.156;2024-03-22T06:58:46;9.70;99.90
16980;DHT22;42288;52.182;21.156;2024-03-22T07:01:12;9.80;99.90
16980;DHT22;42288;52.182;21.156;2024-03-22T07:03:37;9.90;99.90
16980;DHT22;42288;52.182;21.156;2024-03-22T07:06:03;9.90;99.90
16980;DHT22;42288;52.182;21.156;2024-03-22T07:08:29;9.90;99.90
16980;DHT22;42288;52.182;21.156;2024-03-22T07:10:55;9.80;99.90
16980;DHT22;42288;52.182;21.156;2024-03-22T07:13:21;9.80;99.90
16980;DHT22;42288;52.182;21.156;2024-03-22T07:15:46;9.70;99.90
16980;DHT22;42288;52.182;21.156;2024-03-22T07:18:13;9.70;99.90
16980;DHT22;42288;52.182;21.156;2024-03-22T07:20:39;9.70;99.90
16980;DHT22;42288;52.182;21.156;2024-03-22T07:23:05;9.70;99.90
16980;DHT22;42288;52.182;21.156;2024-03-22T07:25:30;9.80;99.90
16980;DHT22;42288;52.182;21.156;2024-03-22T07:27:56;9.80;99.90
16980;DHT22;42288;52.182;21.156;2024-03-22T07:30:22;9.80;99.90
16980;DHT22;42288;52.182;21.156;2024-03-22T07:32:48;9.90;99.90
16980;DHT22;42288;52.182;21.156;2024-03-22T07:35:13;9.80;99.90
16980;DHT22;42288;52.182;21.156;2024-03-22T07:37:39;9.70;99.90
16980;DHT22;42288;52.182;21.156;2024-03-22T07:40:05;9.70;99.90
16980;DHT22;42288;52.182;21.156;2024-03-22T07:42:31;9.80;99.90
16980;DHT22;42288;52.182;21.156;2024-03-22T07:44:56;9.80;99.90
16980;DHT22;42288;52.182;21.156;2024-03-22T07:47:22;9.90;99.90
16980;DHT22;42288;52.182;21.156;2024-03-22T07:49:48;10.00;99.90
16980;DHT22;42288;52.182;21.156;2024-03-22T07:52:13;10.10;99.90
16980;DHT22;42288;52.182;21.156;2024-03-22T07:54:39;10.00;99.90
16980;DHT22;42288;52.182;21.156;2024-03-22T07:57:05;10.00;99.90
16980;DHT22;42288;52.182;21.156;2024-03-22T07:59:30;9.90;99.90
16980;DHT22;42288;52.182;21.156;2024-03-22T08:01:56;10.00;99.90
16980;DHT22;42288;52.182;21.156;2024-03-22T08:04:23;9.90;99.90
16980;DHT22;42288;52.182;21.156;2024-03-22T08:06:50;10.10;99.90
16980;DHT22;42288;52.182;21.156;2024-03-22T08:09:16;10.20;99.90
16980;DHT22;42288;52.182;21.156;2024-03-22T08:11:43;10.00;99.90
16980;DHT22;42288;52.182;21.156;2024-03-22T08:14:08;10.10;99.90
16980;DHT22;42288;52.182;21.156;2024-03-22T08:16:34;10.20;99.90
16980;DHT22;42288;52.182;21.156;2024-03-22T08:18:59;10.20;99.90
16980;DHT22;42288;52.182;21.156;2024-03-22T08:21:25;10.30;99.90
16980;DHT22;42288;52.182;21.156;2024-03-22T08:23:51;10.30;99.90
16980;DHT22;42288;52.182;21.156;2024-03-22T08:26:17;10.50;99.90
16980;DHT22;42288;52.182;21.156;2024-03-22T08:28:43;10.40;99.90
16980;DHT22;42288;52.182;21.156;2024-03-22T08:31:09;10.40;99.90
16980;DHT22;42288;52.182;21.156;2024-03-22T08:33:34;10.50;99.90
16980;DHT22;42288;52.182;21.156;2024-03-22T08:36:00;10.30;99.90
16980;DHT22;42288;52.182;21.156;2024-03-22T08:38:26;10.50;99.90
16980;DHT22;42288;52.182;21.156;2024-03-22T08:40:52;10.40;99.90
16980;DHT22;42288;52.182;21.156;2024-03-22T08:43:18;10.30;99.90
16980;DHT22;42288;52.182;21.156;2024-03-22T08:45:43;10.40;99.90
16980;DHT22;42288;52.182;21.156;2024-03-22T08:48:09;10.30;99.90
16980;DHT22;42288;52.182;21.156;2024-03-22T08:50:34;10.40;99.90
16980;DHT22;42288;52.182;21.156;2024-03-22T08:53:00;10.40;99.90
16980;DHT22;42288;52.182;21.156;2024-03-22T08:55:29;10.40;99.90
16980;DHT22;42288;52.182;21.156;2024-03-22T08:57:55;10.60;99.90
16980;DHT22;42288;52.182;21.156;2024-03-22T09:00:21;10.60;99.90
16980;DHT22;42288;52.182;21.156;2024-03-22T09:02:46;10.60;99.90
16980;DHT22;42288;52.182;21.156;2024-03-22T09:05:12;10.70;99.90
16980;DHT22;42288;52.182;21.156;2024-03-22T09:07:38;10.40;99.90
16980;DHT22;42288;52.182;21.156;2024-03-22T09:10:04;10.40;99.90
16980;DHT22;42288;52.182;21.156;2024-03-22T09:12:30;10.30;99.90
16980;DHT22;42288;52.182;21.156;2024-03-22T09:14:56;10.20;99.90
16980;DHT22;42288;52.182;21.156;2024-03-22T09:17:21;10.20;99.90
16980;DHT22;42288;52.182;21.156;2024-03-22T09:19:47;10.20;99.90
16980;DHT22;42288;52.182;21.156;2024-03-22T09:22:13;10.10;99.90
16980;DHT22;42288;52.182;21.156;2024-03-22T09:24:38;10.20;99.90
16980;DHT22;42288;52.182;21.156;2024-03-22T09:27:04;10.30;99.90
16980;DHT22;42288;52.182;21.156;2024-03-22T09:29:34;10.50;99.90
16980;DHT22;42288;52.182;21.156;2024-03-22T09:31:59;10.60;99.90
16980;DHT22;42288;52.182;21.156;2024-03-22T09:34:25;10.80;99.90
16980;DHT22;42288;52.182;21.156;2024-03-22T09:36:50;10.70;99.90
16980;DHT22;42288;52.182;21.156;2024-03-22T09:39:16;10.70;99.90
16980;DHT22;42288;52.182;21.156;2024-03-22T09:41:44;10.50;99.90
16980;DHT22;42288;52.182;21.156;2024-03-22T09:44:14;10.70;99.90
16980;DHT22;42288;52.182;21.156;2024-03-22T09:46:40;10.60;99.90
16980;DHT22;42288;52.182;21.156;2024-03-22T09:49:11;10.90;99.90
16980;DHT22;42288;52.182;21.156;2024-03-22T09:51:37;11.00;99.90
16980;DHT22;42288;52.182;21.156;2024-03-22T09:54:04;11.00;99.90
16980;DHT22;42288;52.182;21.156;2024-03-22T09:56:31;10.90;99.90
16980;DHT22;42288;52.182;21.156;2024-03-22T09:58:57;11.10;99.90
16980;DHT22;42288;52.182;21.156;2024-03-22T10:01:24;11.10;99.90
16980;DHT22;42288;52.182;21.156;2024-03-22T10:03:52;11.00;99.90
16980;DHT22;42288;52.182;21.156;2024-03-22T10:06:18;10.80;99.90
16980;DHT22;42288;52.182;21.156;2024-03-22T10:08:44;10.60;99.90
16980;DHT22;42288;52.182;21.156;2024-03-22T10:11:10;10.80;99.90
16980;DHT22;42288;52.182;21.156;2024-03-22T10:13:36;10.70;99.90
16980;DHT22;42288;52.182;21.156;2024-03-22T10:16:02;11.00;99.90
16980;DHT22;42288;52.182;21.156;2024-03-22T10:18:28;10.90;99.90
16980;DHT22;42288;52.182;21.156;2024-03-22T10:21:04;11.00;99.90
16980;DHT22;42288;52.182;21.156;2024-03-22T10:23:30;10.90;99.90
16980;DHT22;42288;52.182;21.156;2024-03-22T10:26:00;10.80;99.90
16980;DHT22;42288;52.182;21.156;2024-03-22T10:28:26;10.80;99.90
16980;DHT22;42288;52.182;21.156;2024-03-22T10:30:52;11.00;99.90
16980;DHT22;42288;52.182;21.156;2024-03-22T10:33:22;10.70;99.90
16980;DHT22;42288;52.182;21.156;2024-03-22T10:35:54;10.70;99.90
16980;DHT22;42288;52.182;21.156;2024-03-22T10:38:21;10.60;99.90
16980;DHT22;42288;52.182;21.156;2024-03-22T10:40:47;10.70;99.90
16980;DHT22;42288;52.182;21.156;2024-03-22T10:43:16;10.50;99.90
16980;DHT22;42288;52.182;21.156;2024-03-22T10:45:42;10.30;99.90
16980;DHT22;42288;52.182;21.156;2024-03-22T10:48:10;10.60;99.90
16980;DHT22;42288;52.182;21.156;2024-03-22T10:50:39;10.30;99.90
16980;DHT22;42288;52.182;21.156;2024-03-22T10:53:17;10.40;99.90
16980;DHT22;42288;52.182;21.156;2024-03-22T10:55:46;10.30;99.90
16980;DHT22;42288;52.182;21.156;2024-03-22T10:58:17;10.30;99.90
16980;DHT22;42288;52.182;21.156;2024-03-22T11:00:43;10.30;99.90
16980;DHT22;42288;52.182;21.156;2024-03-22T11:03:09;10.30;99.90
16980;DHT22;42288;52.182;21.156;2024-03-22T11:05:47;10.40;99.90
16980;DHT22;42288;52.182;21.156;2024-03-22T11:08:23;10.60;99.90
16980;DHT22;42288;52.182;21.156;2024-03-22T11:10:49;10.70;99.90
16980;DHT22;42288;52.182;21.156;2024-03-22T11:13:16;10.50;99.90
16980;DHT22;42288;52.182;21.156;2024-03-22T11:15:42;10.60;99.90
16980;DHT22;42288;52.182;21.156;2024-03-22T11:18:08;10.50;99.90
16980;DHT22;42288;52.182;21.156;2024-03-22T11:20:36;10.40;99.90
16980;DHT22;42288;52.182;21.156;2024-03-22T11:23:04;10.40;99.90
16980;DHT22;42288;52.182;21.156;2024-03-22T11:25:31;10.40;99.90
16980;DHT22;42288;52.182;21.156;2024-03-22T11:27:57;10.40;99.90
16980;DHT22;42288;52.182;21.156;2024-03-22T11:30:30;10.60;99.90
16980;DHT22;42288;52.182;21.156;2024-03-22T11:32:57;10.70;99.90
16980;DHT22;42288;52.182;21.156;2024-03-22T11:35:22;10.80;99.90
16980;DHT22;42288;52.182;21.156;2024-03-22T11:37:50;10.80;99.90
16980;DHT22;42288;52.182;21.156;2024-03-22T11:40:16;10.90;99.90
16980;DHT22;42288;52.182;21.156;2024-03-22T11:42:47;10.90;99.90
16980;DHT22;42288;52.182;21.156;2024-03-22T11:45:16;10.90;99.90
16980;DHT22;42288;52.182;21.156;2024-03-22T11:47:43;10.90;99.90
16980;DHT22;42288;52.182;21.156;2024-03-22T11:50:11;10.70;99.90
16980;DHT22;42288;52.182;21.156;2024-03-22T11:52:43;10.70;99.90
16980;DHT22;42288;52.182;21.156;2024-03-22T11:55:10;10.70;99.90
16980;DHT22;42288;52.182;21.156;2024-03-22T11:57:36;10.60;99.90
16980;DHT22;42288;52.182;21.156;2024-03-22T12:00:03;10.70;99.90
16980;DHT22;42288;52.182;21.156;2024-03-22T12:02:35;10.60;99.90
16980;DHT22;42288;52.182;21.156;2024-03-22T12:05:02;10.80;99.90
16980;DHT22;42288;52.182;21.156;2024-03-22T12:07:28;10.80;99.90
16980;DHT22;42288;52.182;21.156;2024-03-22T12:09:54;10.90;99.90
16980;DHT22;42288;52.182;21.156;2024-03-22T12:12:21;10.90;99.90
16980;DHT22;42288;52.182;21.156;2024-03-22T12:14:48;10.90;99.90
16980;DHT22;42288;52.182;21.156;2024-03-22T12:17:15;10.90;99.90
16980;DHT22;42288;52.182;21.156;2024-03-22T12:19:41;10.90;99.90
16980;DHT22;42288;52.182;21.156;2024-03-22T12:22:06;10.70;99.90
16980;DHT22;42288;52.182;21.156;2024-03-22T12:24:32;10.70;99.90
16980;DHT22;42288;52.182;21.156;2024-03-22T12:26:58;10.70;99.90
16980;DHT22;42288;52.182;21.156;2024-03-22T12:29:23;10.80;99.90
16980;DHT22;42288;52.182;21.156;2024-03-22T12:31:49;11.00;99.90
16980;DHT22;42288;52.182;21.156;2024-03-22T12:34:15;10.90;99.90
16980;DHT22;42288;52.182;21.156;2024-03-22T12:36:42;11.00;99.90
16980;DHT22;42288;52.182;21.156;2024-03-22T12:39:07;11.10;99.90
16980;DHT22;42288;52.182;21.156;2024-03-22T12:41:33;11.20;99.90
16980;DHT22;42288;52.182;21.156;2024-03-22T12:43:59;11.20;99.90
16980;DHT22;42288;52.182;21.156;2024-03-22T12:46:26;11.10;99.90
16980;DHT22;42288;52.182;21.156;2024-03-22T12:48:52;11.20;99.90
16980;DHT22;42288;52.182;21.156;2024-03-22T12:51:18;11.10;99.90
16980;DHT22;42288;52.182;21.156;2024-03-22T12:53:44;11.30;99.90
16980;DHT22;42288;52.182;21.156;2024-03-22T12:56:10;11.30;99.90
16980;DHT22;42288;52.182;21.156;2024-03-22T12:58:36;11.10;99.90
16980;DHT22;42288;52.182;21.156;2024-03-22T13:01:02;11.10;99.90
16980;DHT22;42288;52.182;21.156;2024-03-22T13:03:29;11.10;99.90
16980;DHT22;42288;52.182;21.156;2024-03-22T13:05:55;11.30;99.90
16980;DHT22;42288;52.182;21.156;2024-03-22T13:08:20;11.40;99.90
16980;DHT22;42288;52.182;21.156;2024-03-22T13:10:46;11.30;99.90
16980;DHT22;42288;52.182;21.156;2024-03-22T13:13:13;11.30;99.90
16980;DHT22;42288;52.182;21.156;2024-03-22T13:15:44;11.30;99.90
16980;DHT22;42288;52.182;21.156;2024-03-22T13:18:10;11.30;99.90
16980;DHT22;42288;52.182;21.156;2024-03-22T13:20:36;11.20;99.90
16980;DHT22;42288;52.182;21.156;2024-03-22T13:23:02;11.10;99.90
16980;DHT22;42288;52.182;21.156;2024-03-22T13:25:28;11.10;99.90
16980;DHT22;42288;52.182;21.156;2024-03-22T13:27:54;11.00;99.90
16980;DHT22;42288;52.182;21.156;2024-03-22T13:30:20;11.10;99.90
16980;DHT22;42288;52.182;21.156;2024-03-22T13:32:45;11.10;99.90
16980;DHT22;42288;52.182;21.156;2024-03-22T13:35:11;11.00;99.90
16980;DHT22;42288;52.182;21.156;2024-03-22T13:37:37;11.20;99.90
16980;DHT22;42288;52.182;21.156;2024-03-22T13:40:03;11.40;99.90
16980;DHT22;42288;52.182;21.156;2024-03-22T13:42:29;11.50;99.90
16980;DHT22;42288;52.182;21.156;2024-03-22T13:44:55;11.60;99.90
16980;DHT22;42288;52.182;21.156;2024-03-22T13:47:22;11.70;99.90
16980;DHT22;42288;52.182;21.156;2024-03-22T13:49:48;11.80;99.90
16980;DHT22;42288;52.182;21.156;2024-03-22T13:52:13;11.80;99.90
16980;DHT22;42288;52.182;21.156;2024-03-22T13:54:40;11.70;99.90
16980;DHT22;42288;52.182;21.156;2024-03-22T13:57:05;11.60;99.90
16980;DHT22;42288;52.182;21.156;2024-03-22T13:59:31;11.80;99.90
16980;DHT22;42288;52.182;21.156;2024-03-22T14:01:56;12.00;99.90
16980;DHT22;42288;52.182;21.156;2024-03-22T14:04:25;12.00;99.90
16980;DHT22;42288;52.182;21.156;2024-03-22T14:06:54;11.90;99.90
16980;DHT22;42288;52.182;21.156;2024-03-22T14:09:20;11.90;99.90
16980;DHT22;42288;52.182;21.156;2024-03-22T14:11:45;11.80;99.90
16980;DHT22;42288;52.182;21.156;2024-03-22T14:14:14;11.90;99.90
16980;DHT22;42288;52.182;21.156;2024-03-22T14:16:40;11.70;99.90
16980;DHT22;42288;52.182;21.156;2024-03-22T14:19:09;11.60;99.90
16980;DHT22;42288;52.182;21.156;2024-03-22T14:21:35;11.70;99.90
16980;DHT22;42288;52.182;21.156;2024-03-22T14:24:01;11.70;99.90
16980;DHT22;42288;52.182;21.156;2024-03-22T14:26:28;11.70;99.90
16980;DHT22;42288;52.182;21.156;2024-03-22T14:28:54;11.70;99.90
16980;DHT22;42288;52.182;21.156;2024-03-22T14:31:19;11.90;99.90
16980;DHT22;42288;52.182;21.156;2024-03-22T14:33:45;12.00;99.90
16980;DHT22;42288;52.182;21.156;2024-03-22T14:36:11;12.10;99.90
16980;DHT22;42288;52.182;21.156;2024-03-22T14:38:38;12.00;99.90
16980;DHT22;42288;52.182;21.156;2024-03-22T14:41:04;12.10;99.90
16980;DHT22;42288;52.182;21.156;2024-03-22T14:43:29;12.10;99.90
16980;DHT22;42288;52.182;21.156;2024-03-22T14:46:00;12.10;99.90
16980;DHT22;42288;52.182;21.156;2024-03-22T14:48:26;12.10;99.90
16980;DHT22;42288;52.182;21.156;2024-03-22T14:50:51;12.00;99.90
16980;DHT22;42288;52.182;21.156;2024-03-22T14:53:19;12.00;99.90
16980;DHT22;42288;52.182;21.156;2024-03-22T14:56:02;12.00;99.90
16980;DHT22;42288;52.182;21.156;2024-03-22T14:58:31;12.00;99.90
16980;DHT22;42288;52.182;21.156;2024-03-22T15:00:59;11.90;99.90
16980;DHT22;42288;52.182;21.156;2024-03-22T15:03:25;11.90;99.90
16980;DHT22;42288;52.182;21.156;2024-03-22T15:05:52;11.90;99.90
16980;DHT22;42288;52.182;21.156;2024-03-22T15:08:19;11.90;99.90
16980;DHT22;42288;52.182;21.156;2024-03-22T15:10:45;11.80;99.90
16980;DHT22;42288;52.182;21.156;2024-03-22T15:13:11;11.70;99.90
16980;DHT22;42288;52.182;21.156;2024-03-22T15:15:38;11.70;99.90